sensor_id;sensor_type;location;lat;lon;timestamp;P1;durP1;ratioP1;P2;durP2;ratioP2
57822;SDS011;43650;48.064;20.624;2022-11-25T00:00:36;36.60;;;14.27;;
57822;SDS011;43650;48.064;20.624;2022-11-25T00:01:37;33.93;;;13.83;;
57822;SDS011;43650;48.064;20.624;2022-11-25T00:02:43;33.80;;;13.53;;
57822;SDS011;43650;48.064;20.624;2022-11-25T00:03:44;41.75;;;15.38;;
57822;SDS011;43650;48.064;20.624;2022-11-25T00:04:45;38.03;;;14.38;;
57822;SDS011;43650;48.064;20.624;2022-11-25T00:05:45;57.80;;;14.50;;
57822;SDS011;43650;48.064;20.624;2022-11-25T00:06:45;40.63;;;13.47;;
57822;SDS011;43650;48.064;20.624;2022-11-25T00:07:46;38.83;;;14.67;;
57822;SDS011;43650;48.064;20.624;2022-11-25T00:08:48;43.40;;;14.70;;
57822;SDS011;43650;48.064;20.624;2022-11-25T00:09:50;41.92;;;13.88;;
57822;SDS011;43650;48.064;20.624;2022-11-25T00:10:50;36.23;;;11.27;;
57822;SDS011;43650;48.064;20.624;2022-11-25T00:11:50;35.37;;;12.50;;
57822;SDS011;43650;48.064;20.624;2022-11-25T00:12:51;33.07;;;12.63;;
57822;SDS011;43650;48.064;20.624;2022-11-25T00:13:51;44.87;;;14.70;;
57822;SDS011;43650;48.064;20.624;2022-11-25T00:14:52;33.23;;;14.77;;
57822;SDS011;43650;48.064;20.624;2022-11-25T00:15:52;54.87;;;19.23;;
57822;SDS011;43650;48.064;20.624;2022-11-25T00:16:53;66.47;;;25.87;;
57822;SDS011;43650;48.064;20.624;2022-11-25T00:17:53;57.80;;;24.87;;
57822;SDS011;43650;48.064;20.624;2022-11-25T00:18:54;38.53;;;16.50;;
57822;SDS011;43650;48.064;20.624;2022-11-25T00:19:55;30.40;;;12.90;;
57822;SDS011;43650;48.064;20.624;2022-11-25T00:20:56;27.63;;;11.87;;
57822;SDS011;43650;48.064;20.624;2022-11-25T00:21:56;35.47;;;12.60;;
57822;SDS011;43650;48.064;20.624;2022-11-25T00:22:57;38.53;;;16.17;;
57822;SDS011;43650;48.064;20.624;2022-11-25T00:23:59;51.27;;;17.40;;
57822;SDS011;43650;48.064;20.624;2022-11-25T00:25:03;50.75;;;21.58;;
57822;SDS011;43650;48.064;20.624;2022-11-25T00:26:05;62.20;;;23.02;;
57822;SDS011;43650;48.064;20.624;2022-11-25T00:27:09;44.50;;;22.50;;
57822;SDS011;43650;48.064;20.624;2022-11-25T00:28:09;69.07;;;27.57;;
57822;SDS011;43650;48.064;20.624;2022-11-25T00:29:10;48.50;;;17.90;;
57822;SDS011;43650;48.064;20.624;2022-11-25T00:30:12;40.05;;;15.70;;
57822;SDS011;43650;48.064;20.624;2022-11-25T00:31:14;35.45;;;14.87;;
57822;SDS011;43650;48.064;20.624;2022-11-25T00:32:15;44.45;;;14.55;;
57822;SDS011;43650;48.064;20.624;2022-11-25T00:33:16;32.87;;;11.83;;
57822;SDS011;43650;48.064;20.624;2022-11-25T00:34:17;43.55;;;12.00;;
57822;SDS011;43650;48.064;20.624;2022-11-25T00:35:18;25.03;;;10.23;;
57822;SDS011;43650;48.064;20.624;2022-11-25T00:36:19;25.57;;;10.37;;
57822;SDS011;43650;48.064;20.624;2022-11-25T00:37:38;29.58;;;10.43;;
57822;SDS011;43650;48.064;20.624;2022-11-25T00:38:39;27.27;;;10.57;;
57822;SDS011;43650;48.064;20.624;2022-11-25T00:39:39;27.17;;;11.13;;
57822;SDS011;43650;48.064;20.624;2022-11-25T00:40:40;24.67;;;10.63;;
57822;SDS011;43650;48.064;20.624;2022-11-25T00:41:40;25.73;;;11.37;;
57822;SDS011;43650;48.064;20.624;2022-11-25T00:43:00;27.45;;;11.15;;
57822;SDS011;43650;48.064;20.624;2022-11-25T00:44:19;29.48;;;11.90;;
57822;SDS011;43650;48.064;20.624;2022-11-25T00:45:35;27.20;;;9.68;;
57822;SDS011;43650;48.064;20.624;2022-11-25T00:46:35;30.67;;;11.23;;
57822;SDS011;43650;48.064;20.624;2022-11-25T00:47:35;30.23;;;12.13;;
57822;SDS011;43650;48.064;20.624;2022-11-25T00:48:36;29.20;;;11.60;;
57822;SDS011;43650;48.064;20.624;2022-11-25T00:49:37;34.50;;;11.43;;
57822;SDS011;43650;48.064;20.624;2022-11-25T00:50:38;32.67;;;11.10;;
57822;SDS011;43650;48.064;20.624;2022-11-25T00:51:39;24.33;;;9.93;;
57822;SDS011;43650;48.064;20.624;2022-11-25T00:52:39;31.57;;;11.40;;
57822;SDS011;43650;48.064;20.624;2022-11-25T00:53:40;25.67;;;11.57;;
57822;SDS011;43650;48.064;20.624;2022-11-25T00:54:40;26.83;;;11.07;;
57822;SDS011;43650;48.064;20.624;2022-11-25T00:55:41;33.07;;;12.17;;
57822;SDS011;43650;48.064;20.624;2022-11-25T00:57:01;31.15;;;11.05;;
57822;SDS011;43650;48.064;20.624;2022-11-25T00:58:02;25.53;;;11.40;;
57822;SDS011;43650;48.064;20.624;2022-11-25T00:59:02;26.83;;;11.67;;
57822;SDS011;43650;48.064;20.624;2022-11-25T01:00:03;29.70;;;10.90;;
57822;SDS011;43650;48.064;20.624;2022-11-25T01:01:05;25.52;;;10.48;;
57822;SDS011;43650;48.064;20.624;2022-11-25T01:02:05;25.67;;;11.53;;
57822;SDS011;43650;48.064;20.624;2022-11-25T01:03:06;27.77;;;11.50;;
57822;SDS011;43650;48.064;20.624;2022-11-25T01:04:06;27.70;;;10.93;;
57822;SDS011;43650;48.064;20.624;2022-11-25T01:05:07;29.17;;;11.90;;
57822;SDS011;43650;48.064;20.624;2022-11-25T01:06:09;30.33;;;10.97;;
57822;SDS011;43650;48.064;20.624;2022-11-25T01:07:10;27.17;;;10.43;;
57822;SDS011;43650;48.064;20.624;2022-11-25T01:08:10;34.25;;;11.27;;
57822;SDS011;43650;48.064;20.624;2022-11-25T01:09:11;26.13;;;11.23;;
57822;SDS011;43650;48.064;20.624;2022-11-25T01:10:12;23.23;;;9.65;;
57822;SDS011;43650;48.064;20.624;2022-11-25T01:11:13;29.50;;;10.53;;
57822;SDS011;43650;48.064;20.624;2022-11-25T01:12:14;33.80;;;12.55;;
57822;SDS011;43650;48.064;20.624;2022-11-25T01:13:15;29.63;;;11.03;;
57822;SDS011;43650;48.064;20.624;2022-11-25T01:14:16;19.40;;;9.17;;
57822;SDS011;43650;48.064;20.624;2022-11-25T01:15:16;35.38;;;13.38;;
57822;SDS011;43650;48.064;20.624;2022-11-25T01:16:17;33.07;;;12.73;;
57822;SDS011;43650;48.064;20.624;2022-11-25T01:17:19;26.70;;;11.15;;
57822;SDS011;43650;48.064;20.624;2022-11-25T01:18:19;36.63;;;12.40;;
57822;SDS011;43650;48.064;20.624;2022-11-25T01:19:19;27.13;;;11.47;;
57822;SDS011;43650;48.064;20.624;2022-11-25T01:20:20;31.95;;;13.13;;
57822;SDS011;43650;48.064;20.624;2022-11-25T01:21:22;29.23;;;12.73;;
57822;SDS011;43650;48.064;20.624;2022-11-25T01:22:23;28.12;;;11.50;;
57822;SDS011;43650;48.064;20.624;2022-11-25T01:23:24;30.90;;;12.13;;
57822;SDS011;43650;48.064;20.624;2022-11-25T01:24:24;29.57;;;10.07;;
57822;SDS011;43650;48.064;20.624;2022-11-25T01:25:25;34.88;;;12.70;;
57822;SDS011;43650;48.064;20.624;2022-11-25T01:26:26;29.57;;;12.10;;
57822;SDS011;43650;48.064;20.624;2022-11-25T01:27:30;35.65;;;12.30;;
57822;SDS011;43650;48.064;20.624;2022-11-25T01:28:30;26.17;;;10.57;;
57822;SDS011;43650;48.064;20.624;2022-11-25T01:29:31;31.83;;;12.18;;
57822;SDS011;43650;48.064;20.624;2022-11-25T01:30:32;28.90;;;11.00;;
57822;SDS011;43650;48.064;20.624;2022-11-25T01:31:33;31.23;;;10.50;;
57822;SDS011;43650;48.064;20.624;2022-11-25T01:32:34;27.13;;;10.40;;
57822;SDS011;43650;48.064;20.624;2022-11-25T01:33:35;25.60;;;10.60;;
57822;SDS011;43650;48.064;20.624;2022-11-25T01:34:36;29.70;;;12.02;;
57822;SDS011;43650;48.064;20.624;2022-11-25T01:35:36;38.33;;;10.63;;
57822;SDS011;43650;48.064;20.624;2022-11-25T01:36:37;26.95;;;11.35;;
57822;SDS011;43650;48.064;20.624;2022-11-25T01:37:38;31.12;;;10.27;;
57822;SDS011;43650;48.064;20.624;2022-11-25T01:38:38;31.20;;;10.83;;
57822;SDS011;43650;48.064;20.624;2022-11-25T01:39:39;25.10;;;12.15;;
57822;SDS011;43650;48.064;20.624;2022-11-25T01:40:40;31.10;;;11.17;;
57822;SDS011;43650;48.064;20.624;2022-11-25T01:41:40;31.63;;;10.63;;
57822;SDS011;43650;48.064;20.624;2022-11-25T01:42:41;39.33;;;12.57;;
57822;SDS011;43650;48.064;20.624;2022-11-25T01:43:42;41.53;;;12.40;;
57822;SDS011;43650;48.064;20.624;2022-11-25T01:44:43;40.97;;;13.63;;
57822;SDS011;43650;48.064;20.624;2022-11-25T01:45:43;35.07;;;11.67;;
57822;SDS011;43650;48.064;20.624;2022-11-25T01:47:01;47.50;;;13.53;;
57822;SDS011;43650;48.064;20.624;2022-11-25T01:48:09;36.47;;;13.55;;
57822;SDS011;43650;48.064;20.624;2022-11-25T01:49:15;38.90;;;14.38;;
57822;SDS011;43650;48.064;20.624;2022-11-25T01:50:19;41.25;;;11.93;;
57822;SDS011;43650;48.064;20.624;2022-11-25T01:51:27;34.83;;;12.10;;
57822;SDS011;43650;48.064;20.624;2022-11-25T01:52:33;31.37;;;11.02;;
57822;SDS011;43650;48.064;20.624;2022-11-25T01:53:38;33.08;;;12.52;;
57822;SDS011;43650;48.064;20.624;2022-11-25T01:54:41;36.90;;;11.37;;
57822;SDS011;43650;48.064;20.624;2022-11-25T01:55:54;31.80;;;11.50;;
57822;SDS011;43650;48.064;20.624;2022-11-25T01:57:02;29.45;;;11.98;;
57822;SDS011;43650;48.064;20.624;2022-11-25T01:58:09;32.70;;;12.02;;
57822;SDS011;43650;48.064;20.624;2022-11-25T01:59:12;29.73;;;10.65;;
57822;SDS011;43650;48.064;20.624;2022-11-25T02:00:13;32.33;;;10.93;;
57822;SDS011;43650;48.064;20.624;2022-11-25T02:01:14;34.63;;;11.85;;
57822;SDS011;43650;48.064;20.624;2022-11-25T02:02:15;33.33;;;11.30;;
57822;SDS011;43650;48.064;20.624;2022-11-25T02:03:18;31.80;;;10.50;;
57822;SDS011;43650;48.064;20.624;2022-11-25T02:04:20;32.35;;;13.73;;
57822;SDS011;43650;48.064;20.624;2022-11-25T02:06:07;33.33;;;12.57;;
57822;SDS011;43650;48.064;20.624;2022-11-25T02:06:54;28.35;;;11.50;;
57822;SDS011;43650;48.064;20.624;2022-11-25T02:07:57;30.75;;;10.73;;
57822;SDS011;43650;48.064;20.624;2022-11-25T02:09:00;25.77;;;10.82;;
57822;SDS011;43650;48.064;20.624;2022-11-25T02:10:07;23.90;;;10.45;;
57822;SDS011;43650;48.064;20.624;2022-11-25T02:11:10;21.20;;;9.40;;
57822;SDS011;43650;48.064;20.624;2022-11-25T02:12:10;17.17;;;8.43;;
57822;SDS011;43650;48.064;20.624;2022-11-25T02:13:11;16.07;;;8.33;;
57822;SDS011;43650;48.064;20.624;2022-11-25T02:14:11;23.33;;;9.33;;
57822;SDS011;43650;48.064;20.624;2022-11-25T02:15:13;16.90;;;8.80;;
57822;SDS011;43650;48.064;20.624;2022-11-25T02:16:15;23.95;;;9.30;;
57822;SDS011;43650;48.064;20.624;2022-11-25T02:17:15;21.93;;;9.07;;
57822;SDS011;43650;48.064;20.624;2022-11-25T02:18:16;26.57;;;12.00;;
57822;SDS011;43650;48.064;20.624;2022-11-25T02:19:22;25.43;;;10.73;;
57822;SDS011;43650;48.064;20.624;2022-11-25T02:20:23;26.37;;;9.73;;
57822;SDS011;43650;48.064;20.624;2022-11-25T02:21:25;19.95;;;8.25;;
57822;SDS011;43650;48.064;20.624;2022-11-25T02:22:51;21.35;;;9.10;;
57822;SDS011;43650;48.064;20.624;2022-11-25T02:24:07;25.52;;;9.07;;
57822;SDS011;43650;48.064;20.624;2022-11-25T02:25:14;17.30;;;7.15;;
57822;SDS011;43650;48.064;20.624;2022-11-25T02:26:15;23.27;;;8.30;;
57822;SDS011;43650;48.064;20.624;2022-11-25T02:27:16;19.62;;;7.35;;
57822;SDS011;43650;48.064;20.624;2022-11-25T02:29:18;19.52;;;8.45;;
57822;SDS011;43650;48.064;20.624;2022-11-25T02:30:19;22.67;;;9.35;;
57822;SDS011;43650;48.064;20.624;2022-11-25T02:31:20;18.73;;;8.30;;
57822;SDS011;43650;48.064;20.624;2022-11-25T02:32:21;21.87;;;9.52;;
57822;SDS011;43650;48.064;20.624;2022-11-25T02:33:22;21.33;;;7.80;;
57822;SDS011;43650;48.064;20.624;2022-11-25T02:34:22;25.93;;;9.00;;
57822;SDS011;43650;48.064;20.624;2022-11-25T02:35:27;16.97;;;7.80;;
57822;SDS011;43650;48.064;20.624;2022-11-25T02:36:28;22.10;;;9.77;;
57822;SDS011;43650;48.064;20.624;2022-11-25T02:37:28;23.93;;;9.03;;
57822;SDS011;43650;48.064;20.624;2022-11-25T02:39:40;26.30;;;9.85;;
57822;SDS011;43650;48.064;20.624;2022-11-25T02:40:43;22.37;;;10.23;;
57822;SDS011;43650;48.064;20.624;2022-11-25T02:41:48;19.55;;;9.43;;
57822;SDS011;43650;48.064;20.624;2022-11-25T02:42:51;21.90;;;8.68;;
57822;SDS011;43650;48.064;20.624;2022-11-25T02:44:53;17.73;;;7.53;;
57822;SDS011;43650;48.064;20.624;2022-11-25T02:47:07;20.33;;;9.07;;
57822;SDS011;43650;48.064;20.624;2022-11-25T02:48:08;20.77;;;8.93;;
57822;SDS011;43650;48.064;20.624;2022-11-25T02:49:08;21.63;;;9.73;;
57822;SDS011;43650;48.064;20.624;2022-11-25T02:50:09;18.77;;;8.50;;
57822;SDS011;43650;48.064;20.624;2022-11-25T02:51:11;17.50;;;8.82;;
57822;SDS011;43650;48.064;20.624;2022-11-25T02:52:13;18.62;;;8.43;;
57822;SDS011;43650;48.064;20.624;2022-11-25T02:53:14;18.63;;;8.03;;
57822;SDS011;43650;48.064;20.624;2022-11-25T02:54:15;19.35;;;9.35;;
57822;SDS011;43650;48.064;20.624;2022-11-25T02:55:15;23.47;;;8.83;;
57822;SDS011;43650;48.064;20.624;2022-11-25T02:56:16;21.13;;;9.67;;
57822;SDS011;43650;48.064;20.624;2022-11-25T02:57:19;19.40;;;9.35;;
57822;SDS011;43650;48.064;20.624;2022-11-25T02:58:19;24.67;;;9.60;;
57822;SDS011;43650;48.064;20.624;2022-11-25T02:59:20;22.77;;;10.30;;
57822;SDS011;43650;48.064;20.624;2022-11-25T03:00:20;25.13;;;10.37;;
57822;SDS011;43650;48.064;20.624;2022-11-25T03:01:21;25.40;;;11.17;;
57822;SDS011;43650;48.064;20.624;2022-11-25T03:02:22;24.48;;;11.02;;
57822;SDS011;43650;48.064;20.624;2022-11-25T03:03:22;26.40;;;10.00;;
57822;SDS011;43650;48.064;20.624;2022-11-25T03:04:23;21.55;;;9.48;;
57822;SDS011;43650;48.064;20.624;2022-11-25T03:05:23;24.03;;;9.73;;
57822;SDS011;43650;48.064;20.624;2022-11-25T03:06:24;21.25;;;8.77;;
57822;SDS011;43650;48.064;20.624;2022-11-25T03:07:24;22.30;;;8.93;;
57822;SDS011;43650;48.064;20.624;2022-11-25T03:08:25;24.90;;;10.17;;
57822;SDS011;43650;48.064;20.624;2022-11-25T03:09:25;25.07;;;9.40;;
57822;SDS011;43650;48.064;20.624;2022-11-25T03:10:26;22.00;;;9.93;;
57822;SDS011;43650;48.064;20.624;2022-11-25T03:11:26;30.90;;;10.60;;
57822;SDS011;43650;48.064;20.624;2022-11-25T03:12:45;29.90;;;10.77;;
57822;SDS011;43650;48.064;20.624;2022-11-25T03:13:45;34.47;;;11.17;;
57822;SDS011;43650;48.064;20.624;2022-11-25T03:14:46;24.80;;;10.20;;
57822;SDS011;43650;48.064;20.624;2022-11-25T03:15:47;27.85;;;11.43;;
57822;SDS011;43650;48.064;20.624;2022-11-25T03:16:47;25.23;;;11.18;;
57822;SDS011;43650;48.064;20.624;2022-11-25T03:17:48;23.00;;;10.00;;
57822;SDS011;43650;48.064;20.624;2022-11-25T03:18:48;23.90;;;10.10;;
57822;SDS011;43650;48.064;20.624;2022-11-25T03:19:49;21.57;;;9.77;;
57822;SDS011;43650;48.064;20.624;2022-11-25T03:20:53;21.40;;;9.70;;
57822;SDS011;43650;48.064;20.624;2022-11-25T03:21:54;21.37;;;8.88;;
57822;SDS011;43650;48.064;20.624;2022-11-25T03:22:54;20.67;;;9.60;;
57822;SDS011;43650;48.064;20.624;2022-11-25T03:23:54;17.43;;;8.40;;
57822;SDS011;43650;48.064;20.624;2022-11-25T03:24:55;24.20;;;9.50;;
57822;SDS011;43650;48.064;20.624;2022-11-25T03:25:55;18.37;;;10.03;;
57822;SDS011;43650;48.064;20.624;2022-11-25T03:26:56;20.87;;;9.20;;
57822;SDS011;43650;48.064;20.624;2022-11-25T03:27:56;26.67;;;10.27;;
57822;SDS011;43650;48.064;20.624;2022-11-25T03:28:57;20.27;;;9.20;;
57822;SDS011;43650;48.064;20.624;2022-11-25T03:29:57;24.63;;;10.37;;
57822;SDS011;43650;48.064;20.624;2022-11-25T03:30:57;22.13;;;12.30;;
57822;SDS011;43650;48.064;20.624;2022-11-25T03:31:58;18.63;;;9.47;;
57822;SDS011;43650;48.064;20.624;2022-11-25T03:32:58;20.57;;;8.97;;
57822;SDS011;43650;48.064;20.624;2022-11-25T03:33:59;20.33;;;8.67;;
57822;SDS011;43650;48.064;20.624;2022-11-25T03:34:59;14.40;;;7.70;;
57822;SDS011;43650;48.064;20.624;2022-11-25T03:36:00;19.67;;;8.45;;
57822;SDS011;43650;48.064;20.624;2022-11-25T03:37:00;15.87;;;7.23;;
57822;SDS011;43650;48.064;20.624;2022-11-25T03:38:00;20.67;;;7.17;;
57822;SDS011;43650;48.064;20.624;2022-11-25T03:39:01;18.13;;;8.50;;
57822;SDS011;43650;48.064;20.624;2022-11-25T03:40:02;15.87;;;8.93;;
57822;SDS011;43650;48.064;20.624;2022-11-25T03:42:03;19.27;;;8.32;;
57822;SDS011;43650;48.064;20.624;2022-11-25T03:43:04;14.87;;;7.43;;
57822;SDS011;43650;48.064;20.624;2022-11-25T03:44:04;17.17;;;8.30;;
57822;SDS011;43650;48.064;20.624;2022-11-25T03:45:05;19.87;;;7.23;;
57822;SDS011;43650;48.064;20.624;2022-11-25T03:46:06;17.95;;;7.75;;
57822;SDS011;43650;48.064;20.624;2022-11-25T03:47:06;15.67;;;7.93;;
57822;SDS011;43650;48.064;20.624;2022-11-25T03:48:06;15.93;;;8.33;;
57822;SDS011;43650;48.064;20.624;2022-11-25T03:49:07;16.50;;;6.53;;
57822;SDS011;43650;48.064;20.624;2022-11-25T03:50:07;20.40;;;7.47;;
57822;SDS011;43650;48.064;20.624;2022-11-25T03:51:08;17.65;;;8.02;;
57822;SDS011;43650;48.064;20.624;2022-11-25T03:52:09;20.33;;;8.40;;
57822;SDS011;43650;48.064;20.624;2022-11-25T03:53:09;17.70;;;7.87;;
57822;SDS011;43650;48.064;20.624;2022-11-25T03:54:10;17.43;;;7.77;;
57822;SDS011;43650;48.064;20.624;2022-11-25T03:55:10;19.97;;;8.60;;
57822;SDS011;43650;48.064;20.624;2022-11-25T03:56:12;17.58;;;8.32;;
57822;SDS011;43650;48.064;20.624;2022-11-25T03:57:12;19.43;;;7.80;;
57822;SDS011;43650;48.064;20.624;2022-11-25T03:58:12;20.53;;;8.43;;
57822;SDS011;43650;48.064;20.624;2022-11-25T03:59:13;21.37;;;8.23;;
57822;SDS011;43650;48.064;20.624;2022-11-25T04:00:13;18.93;;;8.87;;
57822;SDS011;43650;48.064;20.624;2022-11-25T04:01:14;23.53;;;7.90;;
57822;SDS011;43650;48.064;20.624;2022-11-25T04:02:14;25.77;;;8.73;;
57822;SDS011;43650;48.064;20.624;2022-11-25T04:03:15;17.43;;;8.97;;
57822;SDS011;43650;48.064;20.624;2022-11-25T04:04:15;16.93;;;8.17;;
57822;SDS011;43650;48.064;20.624;2022-11-25T04:05:15;16.80;;;7.67;;
57822;SDS011;43650;48.064;20.624;2022-11-25T04:06:16;18.97;;;7.70;;
57822;SDS011;43650;48.064;20.624;2022-11-25T04:07:19;19.33;;;7.75;;
57822;SDS011;43650;48.064;20.624;2022-11-25T04:08:19;23.03;;;8.57;;
57822;SDS011;43650;48.064;20.624;2022-11-25T04:09:20;19.80;;;8.40;;
57822;SDS011;43650;48.064;20.624;2022-11-25T04:10:20;20.77;;;8.33;;
57822;SDS011;43650;48.064;20.624;2022-11-25T04:11:21;20.13;;;8.87;;
57822;SDS011;43650;48.064;20.624;2022-11-25T04:12:41;21.05;;;7.87;;
57822;SDS011;43650;48.064;20.624;2022-11-25T04:13:47;17.52;;;7.82;;
57822;SDS011;43650;48.064;20.624;2022-11-25T04:14:48;21.53;;;9.70;;
57822;SDS011;43650;48.064;20.624;2022-11-25T04:15:49;16.73;;;7.53;;
57822;SDS011;43650;48.064;20.624;2022-11-25T04:17:50;19.42;;;7.43;;
57822;SDS011;43650;48.064;20.624;2022-11-25T04:18:50;17.40;;;8.03;;
57822;SDS011;43650;48.064;20.624;2022-11-25T04:19:51;21.87;;;9.43;;
57822;SDS011;43650;48.064;20.624;2022-11-25T04:20:51;19.67;;;8.40;;
57822;SDS011;43650;48.064;20.624;2022-11-25T04:21:52;19.37;;;9.73;;
57822;SDS011;43650;48.064;20.624;2022-11-25T04:22:52;19.73;;;8.13;;
57822;SDS011;43650;48.064;20.624;2022-11-25T04:23:52;18.27;;;8.27;;
57822;SDS011;43650;48.064;20.624;2022-11-25T04:24:53;20.13;;;8.20;;
57822;SDS011;43650;48.064;20.624;2022-11-25T04:25:53;25.87;;;8.80;;
57822;SDS011;43650;48.064;20.624;2022-11-25T04:26:54;17.87;;;7.47;;
57822;SDS011;43650;48.064;20.624;2022-11-25T04:27:54;18.77;;;8.47;;
57822;SDS011;43650;48.064;20.624;2022-11-25T04:28:54;21.60;;;8.87;;
57822;SDS011;43650;48.064;20.624;2022-11-25T04:29:55;23.47;;;9.73;;
57822;SDS011;43650;48.064;20.624;2022-11-25T04:30:55;24.30;;;9.63;;
57822;SDS011;43650;48.064;20.624;2022-11-25T04:31:56;20.67;;;7.50;;
57822;SDS011;43650;48.064;20.624;2022-11-25T04:32:56;16.70;;;8.17;;
57822;SDS011;43650;48.064;20.624;2022-11-25T04:33:57;21.43;;;8.50;;
57822;SDS011;43650;48.064;20.624;2022-11-25T04:34:57;25.83;;;9.47;;
57822;SDS011;43650;48.064;20.624;2022-11-25T04:35:58;19.33;;;8.07;;
57822;SDS011;43650;48.064;20.624;2022-11-25T04:36:58;22.40;;;9.60;;
57822;SDS011;43650;48.064;20.624;2022-11-25T04:37:58;19.03;;;7.77;;
57822;SDS011;43650;48.064;20.624;2022-11-25T04:38:59;19.23;;;9.00;;
57822;SDS011;43650;48.064;20.624;2022-11-25T04:39:59;19.77;;;8.53;;
57822;SDS011;43650;48.064;20.624;2022-11-25T04:41:00;21.53;;;8.80;;
57822;SDS011;43650;48.064;20.624;2022-11-25T04:42:00;19.27;;;8.47;;
57822;SDS011;43650;48.064;20.624;2022-11-25T04:43:19;20.15;;;8.50;;
57822;SDS011;43650;48.064;20.624;2022-11-25T04:44:20;23.38;;;8.95;;
57822;SDS011;43650;48.064;20.624;2022-11-25T04:45:21;19.50;;;9.07;;
57822;SDS011;43650;48.064;20.624;2022-11-25T04:46:21;20.07;;;8.10;;
57822;SDS011;43650;48.064;20.624;2022-11-25T04:47:23;17.73;;;7.45;;
57822;SDS011;43650;48.064;20.624;2022-11-25T04:48:24;17.73;;;7.67;;
57822;SDS011;43650;48.064;20.624;2022-11-25T04:49:24;19.13;;;8.40;;
57822;SDS011;43650;48.064;20.624;2022-11-25T04:50:25;23.23;;;8.40;;
57822;SDS011;43650;48.064;20.624;2022-11-25T04:51:25;13.13;;;7.30;;
57822;SDS011;43650;48.064;20.624;2022-11-25T04:52:25;18.53;;;7.80;;
57822;SDS011;43650;48.064;20.624;2022-11-25T04:53:26;15.90;;;7.33;;
57822;SDS011;43650;48.064;20.624;2022-11-25T04:54:26;17.90;;;8.40;;
57822;SDS011;43650;48.064;20.624;2022-11-25T04:55:27;17.37;;;8.93;;
57822;SDS011;43650;48.064;20.624;2022-11-25T04:56:27;18.48;;;8.50;;
57822;SDS011;43650;48.064;20.624;2022-11-25T04:57:28;16.30;;;7.60;;
57822;SDS011;43650;48.064;20.624;2022-11-25T04:58:28;27.87;;;9.33;;
57822;SDS011;43650;48.064;20.624;2022-11-25T04:59:47;16.55;;;6.57;;
57822;SDS011;43650;48.064;20.624;2022-11-25T05:00:48;24.40;;;8.75;;
57822;SDS011;43650;48.064;20.624;2022-11-25T05:01:49;17.47;;;7.27;;
57822;SDS011;43650;48.064;20.624;2022-11-25T05:02:49;17.47;;;7.80;;
57822;SDS011;43650;48.064;20.624;2022-11-25T05:03:49;19.87;;;8.50;;
57822;SDS011;43650;48.064;20.624;2022-11-25T05:04:50;17.93;;;6.77;;
57822;SDS011;43650;48.064;20.624;2022-11-25T05:05:52;19.67;;;8.18;;
57822;SDS011;43650;48.064;20.624;2022-11-25T05:06:53;21.40;;;8.50;;
57822;SDS011;43650;48.064;20.624;2022-11-25T05:07:54;19.77;;;7.87;;
57822;SDS011;43650;48.064;20.624;2022-11-25T05:08:55;22.05;;;9.13;;
57822;SDS011;43650;48.064;20.624;2022-11-25T05:09:55;26.30;;;8.40;;
57822;SDS011;43650;48.064;20.624;2022-11-25T05:10:57;23.50;;;7.35;;
57822;SDS011;43650;48.064;20.624;2022-11-25T05:11:58;23.27;;;8.50;;
57822;SDS011;43650;48.064;20.624;2022-11-25T05:12:58;44.47;;;11.40;;
57822;SDS011;43650;48.064;20.624;2022-11-25T05:13:59;18.50;;;8.37;;
57822;SDS011;43650;48.064;20.624;2022-11-25T05:14:59;27.47;;;9.10;;
57822;SDS011;43650;48.064;20.624;2022-11-25T05:15:59;99.77;;;36.40;;
57822;SDS011;43650;48.064;20.624;2022-11-25T05:17:01;28.40;;;14.70;;
57822;SDS011;43650;48.064;20.624;2022-11-25T05:18:02;25.50;;;10.07;;
57822;SDS011;43650;48.064;20.624;2022-11-25T05:19:03;119.77;;;40.33;;
57822;SDS011;43650;48.064;20.624;2022-11-25T05:20:03;172.27;;;51.53;;
57822;SDS011;43650;48.064;20.624;2022-11-25T05:21:04;206.73;;;70.37;;
57822;SDS011;43650;48.064;20.624;2022-11-25T05:23:10;129.40;;;45.15;;
57822;SDS011;43650;48.064;20.624;2022-11-25T05:24:11;64.50;;;25.83;;
57822;SDS011;43650;48.064;20.624;2022-11-25T05:25:11;31.83;;;10.17;;
57822;SDS011;43650;48.064;20.624;2022-11-25T05:26:12;19.17;;;8.77;;
57822;SDS011;43650;48.064;20.624;2022-11-25T05:27:12;32.40;;;12.43;;
57822;SDS011;43650;48.064;20.624;2022-11-25T05:28:13;35.67;;;15.50;;
57822;SDS011;43650;48.064;20.624;2022-11-25T05:29:14;27.17;;;8.50;;
57822;SDS011;43650;48.064;20.624;2022-11-25T05:30:14;39.00;;;9.13;;
57822;SDS011;43650;48.064;20.624;2022-11-25T05:31:15;32.67;;;9.13;;
57822;SDS011;43650;48.064;20.624;2022-11-25T05:32:15;18.73;;;9.17;;
57822;SDS011;43650;48.064;20.624;2022-11-25T05:33:16;23.12;;;8.73;;
57822;SDS011;43650;48.064;20.624;2022-11-25T05:34:16;29.33;;;9.60;;
57822;SDS011;43650;48.064;20.624;2022-11-25T05:35:17;28.93;;;11.87;;
57822;SDS011;43650;48.064;20.624;2022-11-25T05:36:17;41.70;;;9.82;;
57822;SDS011;43650;48.064;20.624;2022-11-25T05:37:18;27.93;;;8.40;;
57822;SDS011;43650;48.064;20.624;2022-11-25T05:38:18;32.37;;;15.67;;
57822;SDS011;43650;48.064;20.624;2022-11-25T05:39:19;27.67;;;14.00;;
57822;SDS011;43650;48.064;20.624;2022-11-25T05:40:19;27.20;;;9.23;;
57822;SDS011;43650;48.064;20.624;2022-11-25T05:41:20;29.57;;;8.80;;
57822;SDS011;43650;48.064;20.624;2022-11-25T05:42:20;28.77;;;8.77;;
57822;SDS011;43650;48.064;20.624;2022-11-25T05:43:20;29.00;;;10.03;;
57822;SDS011;43650;48.064;20.624;2022-11-25T05:44:21;33.57;;;9.70;;
57822;SDS011;43650;48.064;20.624;2022-11-25T05:45:21;34.03;;;9.50;;
57822;SDS011;43650;48.064;20.624;2022-11-25T05:46:22;63.77;;;10.47;;
57822;SDS011;43650;48.064;20.624;2022-11-25T05:47:22;61.00;;;24.90;;
57822;SDS011;43650;48.064;20.624;2022-11-25T05:48:22;56.83;;;20.90;;
57822;SDS011;43650;48.064;20.624;2022-11-25T05:49:23;31.57;;;14.33;;
57822;SDS011;43650;48.064;20.624;2022-11-25T05:50:23;25.30;;;11.77;;
57822;SDS011;43650;48.064;20.624;2022-11-25T05:51:24;47.70;;;18.37;;
57822;SDS011;43650;48.064;20.624;2022-11-25T05:52:25;51.95;;;21.73;;
57822;SDS011;43650;48.064;20.624;2022-11-25T05:53:25;32.20;;;11.93;;
57822;SDS011;43650;48.064;20.624;2022-11-25T05:54:26;25.33;;;10.37;;
57822;SDS011;43650;48.064;20.624;2022-11-25T05:55:26;29.10;;;13.07;;
57822;SDS011;43650;48.064;20.624;2022-11-25T05:56:26;41.57;;;15.47;;
57822;SDS011;43650;48.064;20.624;2022-11-25T05:57:27;60.33;;;12.17;;
57822;SDS011;43650;48.064;20.624;2022-11-25T05:58:28;30.10;;;8.50;;
57822;SDS011;43650;48.064;20.624;2022-11-25T06:00:29;38.55;;;9.73;;
57822;SDS011;43650;48.064;20.624;2022-11-25T06:01:30;21.83;;;9.07;;
57822;SDS011;43650;48.064;20.624;2022-11-25T06:02:30;22.57;;;9.00;;
57822;SDS011;43650;48.064;20.624;2022-11-25T06:03:31;62.23;;;8.73;;
57822;SDS011;43650;48.064;20.624;2022-11-25T06:04:31;26.63;;;8.10;;
57822;SDS011;43650;48.064;20.624;2022-11-25T06:05:33;21.40;;;8.50;;
57822;SDS011;43650;48.064;20.624;2022-11-25T06:06:34;20.95;;;8.07;;
57822;SDS011;43650;48.064;20.624;2022-11-25T06:07:34;28.03;;;10.60;;